createdAt,value
2023-04-30T00:00:13.529Z,93.76
2023-04-30T00:03:16.446Z,94.17
2023-04-30T00:06:19.744Z,93.78
2023-04-30T00:09:22.527Z,95.49
2023-04-30T00:12:25.228Z,96.29
2023-04-30T00:15:27.796Z,95.19
2023-04-30T00:18:31.174Z,95.49
2023-04-30T00:21:34.276Z,95.64
2023-04-30T00:24:37.117Z,96.35
2023-04-30T00:27:40.880Z,95.49
2023-04-30T00:30:44.147Z,95.36
2023-04-30T00:33:46.689Z,96.22
2023-04-30T00:36:49.586Z,95.36
2023-04-30T00:39:53.055Z,95.00
2023-04-30T00:42:56.275Z,95.37
2023-04-30T00:45:59.129Z,94.83
2023-04-30T00:49:05.319Z,94.78
2023-04-30T00:52:08.072Z,94.32
2023-04-30T00:55:12.461Z,94.66
2023-04-30T00:58:15.507Z,95.41
2023-04-30T01:01:18.464Z,94.92
2023-04-30T01:04:21.172Z,95.24
2023-04-30T01:07:27.974Z,96.20
2023-04-30T01:10:35.999Z,96.42
2023-04-30T01:13:53.853Z,95.80
2023-04-30T01:17:04.698Z,96.41
2023-04-30T01:20:10.454Z,97.06
2023-04-30T01:23:32.382Z,97.09
2023-04-30T01:26:56.451Z,96.82
2023-04-30T01:30:03.706Z,96.75
2023-04-30T01:33:06.718Z,96.50
2023-04-30T01:36:24.273Z,95.78
2023-04-30T01:39:56.633Z,96.07
2023-04-30T01:43:11.191Z,96.53
2023-04-30T01:46:30.696Z,95.89
2023-04-30T01:49:50.851Z,97.07
2023-04-30T01:53:00.522Z,97.02
2023-04-30T01:56:05.847Z,96.89
2023-04-30T01:59:10.043Z,96.10
2023-04-30T02:02:12.620Z,96.01
2023-04-30T02:05:15.618Z,96.56
2023-04-30T02:08:18.009Z,96.26
2023-04-30T02:11:21.446Z,96.08
2023-04-30T02:14:23.885Z,96.72
2023-04-30T02:17:29.490Z,96.89
2023-04-30T02:20:32.020Z,97.14
2023-04-30T02:23:34.958Z,96.19
2023-04-30T02:26:37.321Z,96.92
2023-04-30T02:29:40.192Z,96.38
2023-04-30T02:32:42.736Z,96.41
2023-04-30T02:35:46.612Z,96.10
2023-04-30T02:38:49.077Z,96.41
2023-04-30T02:41:52.192Z,96.65
2023-04-30T02:44:55.043Z,97.64
2023-04-30T02:47:57.707Z,98.47
2023-04-30T02:51:01.092Z,98.52
2023-04-30T02:54:03.821Z,97.31
2023-04-30T02:57:07.394Z,96.95
2023-04-30T03:00:10.998Z,97.02
2023-04-30T03:03:13.913Z,97.49
2023-04-30T03:06:17.035Z,97.24
2023-04-30T03:09:19.592Z,97.46
2023-04-30T03:12:22.579Z,97.14
2023-04-30T03:15:25.435Z,97.31
2023-04-30T03:18:29.243Z,96.66
2023-04-30T03:21:32.708Z,95.96
2023-04-30T03:24:35.621Z,96.16
2023-04-30T03:27:38.225Z,96.25
2023-04-30T03:30:41.565Z,96.33
2023-04-30T03:33:44.018Z,97.31
2023-04-30T03:36:47.061Z,97.01
2023-04-30T03:39:49.593Z,97.38
2023-04-30T03:42:52.821Z,96.93
2023-04-30T03:45:55.594Z,96.41
2023-04-30T03:48:58.276Z,96.39
2023-04-30T03:52:01.380Z,96.78
2023-04-30T03:55:04.937Z,96.41
2023-04-30T03:58:08.254Z,96.46
2023-04-30T04:01:11.970Z,97.19
2023-04-30T04:04:14.856Z,96.59
2023-04-30T04:07:17.977Z,97.19
2023-04-30T04:10:22.119Z,96.92
2023-04-30T04:13:25.090Z,96.86
2023-04-30T04:16:27.897Z,95.99
2023-04-30T04:19:30.674Z,95.64
2023-04-30T04:22:33.810Z,95.03
2023-04-30T04:25:36.839Z,94.73
2023-04-30T04:28:39.686Z,95.07
2023-04-30T04:31:43.217Z,93.83
2023-04-30T04:34:57.135Z,94.09
2023-04-30T04:38:00.549Z,93.99
2023-04-30T04:41:03.224Z,93.78
2023-04-30T04:44:06.432Z,93.63
2023-04-30T04:47:10.223Z,92.95
2023-04-30T04:50:13.868Z,92.12
2023-04-30T04:53:17.189Z,92.45
2023-04-30T04:56:20.017Z,92.19
2023-04-30T04:59:23.225Z,91.58
2023-04-30T05:02:26.678Z,90.35
2023-04-30T05:05:29.188Z,90.39
2023-04-30T05:08:32.624Z,88.68
2023-04-30T05:11:35.628Z,87.00
2023-04-30T05:14:38.644Z,87.51
2023-04-30T05:17:42.103Z,87.42
2023-04-30T05:20:45.277Z,88.55
2023-04-30T05:23:48.122Z,85.36
2023-04-30T05:26:50.978Z,85.23
2023-04-30T05:29:54.440Z,85.55
2023-04-30T05:32:58.413Z,86.26
2023-04-30T05:36:01.504Z,84.83
2023-04-30T05:39:04.927Z,85.50
2023-04-30T05:42:07.511Z,84.26
2023-04-30T05:45:12.626Z,85.36
2023-04-30T05:48:15.422Z,81.33
2023-04-30T05:51:18.148Z,83.10
2023-04-30T05:54:21.095Z,84.93
2023-04-30T05:57:23.839Z,85.05
2023-04-30T06:00:26.533Z,85.68
2023-04-30T06:03:29.505Z,86.03
2023-04-30T06:06:32.814Z,85.21
2023-04-30T06:09:35.957Z,84.41
2023-04-30T06:12:39.945Z,86.13
2023-04-30T06:15:43.327Z,87.59
2023-04-30T06:18:46.357Z,87.20
2023-04-30T06:21:48.925Z,87.37
2023-04-30T06:24:51.682Z,86.02
2023-04-30T06:27:54.441Z,85.02
2023-04-30T06:30:57.394Z,85.69
2023-04-30T06:34:00.452Z,84.21
2023-04-30T06:37:03.530Z,83.47
2023-04-30T06:40:16.897Z,82.88
2023-04-30T06:43:19.611Z,81.78
2023-04-30T06:46:22.538Z,80.09
2023-04-30T06:49:25.438Z,79.56
2023-04-30T06:52:28.994Z,79.30
2023-04-30T06:55:32.019Z,79.36
2023-04-30T06:58:34.748Z,74.89
2023-04-30T07:01:37.455Z,74.81
2023-04-30T07:04:41.092Z,69.04
2023-04-30T07:07:43.750Z,67.36
2023-04-30T07:10:46.659Z,66.01
2023-04-30T07:13:49.100Z,63.49
2023-04-30T07:16:51.932Z,63.15
2023-04-30T07:19:54.764Z,64.62
2023-04-30T07:22:57.657Z,65.67
2023-04-30T07:26:00.625Z,65.31
2023-04-30T07:29:04.259Z,64.51
2023-04-30T07:32:06.903Z,61.55
2023-04-30T07:35:10.533Z,62.04
2023-04-30T07:38:13.027Z,63.27
2023-04-30T07:41:15.961Z,61.74
2023-04-30T07:44:19.115Z,61.30
2023-04-30T07:47:26.080Z,62.53
2023-04-30T07:50:33.719Z,59.60
2023-04-30T07:53:36.869Z,55.63
2023-04-30T07:56:39.787Z,54.21
2023-04-30T07:59:42.718Z,54.59
2023-04-30T08:02:46.082Z,56.45
2023-04-30T08:05:49.222Z,56.93
2023-04-30T08:08:51.748Z,59.00
2023-04-30T08:11:54.592Z,57.48
2023-04-30T08:15:05.055Z,54.95
2023-04-30T08:18:08.227Z,53.03
2023-04-30T08:21:14.164Z,53.07
2023-04-30T08:24:17.520Z,54.44
2023-04-30T08:27:20.338Z,53.08
2023-04-30T08:30:23.398Z,54.86
2023-04-30T08:33:27.490Z,54.98
2023-04-30T08:36:30.179Z,56.58
2023-04-30T08:39:32.701Z,55.17
2023-04-30T08:42:42.308Z,60.55
2023-04-30T08:45:45.557Z,56.07
2023-04-30T08:48:49.036Z,58.27
2023-04-30T08:51:52.962Z,55.30
2023-04-30T08:54:58.179Z,55.32
2023-04-30T08:58:01.185Z,56.24
2023-04-30T09:01:07.822Z,53.96
2023-04-30T09:04:10.773Z,55.34
2023-04-30T09:07:14.657Z,55.53
2023-04-30T09:10:22.930Z,58.84
2023-04-30T09:13:40.674Z,56.25
2023-04-30T09:16:51.215Z,54.23
2023-04-30T09:19:54.591Z,53.57
2023-04-30T09:23:07.557Z,52.79
2023-04-30T09:26:20.163Z,53.07
2023-04-30T09:29:36.178Z,55.61
2023-04-30T09:32:55.807Z,54.71
2023-04-30T09:35:58.497Z,53.33
2023-04-30T09:39:11.490Z,55.87
2023-04-30T09:42:15.434Z,51.28
2023-04-30T09:45:18.473Z,53.34
2023-04-30T09:48:25.559Z,50.67
2023-04-30T09:51:29.301Z,51.49
2023-04-30T09:54:32.562Z,49.96
2023-04-30T09:57:37.803Z,50.05
2023-04-30T10:00:42.066Z,44.12
2023-04-30T10:03:47.436Z,43.82
2023-04-30T10:06:54.942Z,40.21
2023-04-30T10:10:11.115Z,44.27
2023-04-30T10:13:21.105Z,48.65
2023-04-30T10:16:44.455Z,48.82
2023-04-30T10:19:50.651Z,50.80
2023-04-30T10:22:54.326Z,50.37
2023-04-30T10:25:57.762Z,51.20
2023-04-30T10:29:01.597Z,50.76
2023-04-30T10:32:05.287Z,49.51
2023-04-30T10:35:35.680Z,47.21
2023-04-30T10:38:39.357Z,44.88
2023-04-30T10:41:46.526Z,42.98
2023-04-30T10:44:49.142Z,41.07
2023-04-30T10:47:55.615Z,41.27
2023-04-30T10:50:59.656Z,41.78
2023-04-30T10:54:02.997Z,40.55
2023-04-30T10:57:17.969Z,41.71
2023-04-30T11:00:26.097Z,41.95
2023-04-30T11:03:30.004Z,40.76
2023-04-30T11:06:54.463Z,40.55
2023-04-30T11:10:01.346Z,38.19
2023-04-30T11:13:06.649Z,38.56
2023-04-30T11:16:09.519Z,37.22
2023-04-30T11:19:14.380Z,37.88
2023-04-30T11:22:24.654Z,37.98
2023-04-30T11:25:40.576Z,38.65
2023-04-30T11:28:52.403Z,38.02
2023-04-30T11:31:56.442Z,38.19
2023-04-30T11:34:59.423Z,39.27
2023-04-30T11:38:02.747Z,39.70
2023-04-30T11:41:05.614Z,38.46
2023-04-30T11:44:28.304Z,38.09
2023-04-30T11:47:41.546Z,40.21
2023-04-30T11:50:45.802Z,37.00
2023-04-30T11:53:50.235Z,39.73
2023-04-30T11:56:53.139Z,40.84
2023-04-30T11:59:56.409Z,38.81
2023-04-30T12:03:04.097Z,38.10
2023-04-30T12:06:10.060Z,38.83
2023-04-30T12:09:12.915Z,40.15
2023-04-30T12:12:27.047Z,38.43
2023-04-30T12:15:29.907Z,40.50
2023-04-30T12:18:33.187Z,40.42
2023-04-30T12:21:36.790Z,45.34
2023-04-30T12:24:39.293Z,46.38
2023-04-30T12:27:43.223Z,42.31
2023-04-30T12:30:47.197Z,42.39
2023-04-30T12:33:57.203Z,43.15
2023-04-30T12:37:00.144Z,43.60
2023-04-30T12:40:03.315Z,42.10
2023-04-30T12:43:08.595Z,41.69
2023-04-30T12:46:11.586Z,41.05
2023-04-30T12:49:34.654Z,43.21
2023-04-30T12:52:37.871Z,44.95
2023-04-30T12:55:40.617Z,44.38
2023-04-30T12:58:49.972Z,42.47
2023-04-30T13:01:54.381Z,41.91
2023-04-30T13:04:57.372Z,44.38
2023-04-30T13:08:05.958Z,44.79
2023-04-30T13:11:10.349Z,45.15
2023-04-30T13:14:14.301Z,43.41
2023-04-30T13:17:17.284Z,43.17
2023-04-30T13:20:19.782Z,43.44
2023-04-30T13:23:22.820Z,44.83
2023-04-30T13:26:26.397Z,42.36
2023-04-30T13:29:29.518Z,44.65
2023-04-30T13:32:32.294Z,43.71
2023-04-30T13:35:35.181Z,43.33
2023-04-30T13:38:39.448Z,42.06
2023-04-30T13:41:42.469Z,43.07
2023-04-30T13:44:47.825Z,44.71
2023-04-30T13:47:50.822Z,44.99
2023-04-30T13:50:54.276Z,44.27
2023-04-30T13:53:57.910Z,44.53
2023-04-30T13:57:00.336Z,44.72
2023-04-30T14:00:04.978Z,46.68
2023-04-30T14:03:11.548Z,45.29
2023-04-30T14:06:14.771Z,45.36
2023-04-30T14:09:18.183Z,47.74
2023-04-30T14:12:21.904Z,47.47
2023-04-30T14:15:24.828Z,48.19
2023-04-30T14:18:27.709Z,47.71
2023-04-30T14:21:30.267Z,47.33
2023-04-30T14:24:33.313Z,48.24
2023-04-30T14:27:36.132Z,48.09
2023-04-30T14:30:39.172Z,48.87
2023-04-30T14:33:41.863Z,50.43
2023-04-30T14:36:44.639Z,50.68
2023-04-30T14:39:47.605Z,49.47
2023-04-30T14:42:50.788Z,48.79
2023-04-30T14:45:53.978Z,49.21
2023-04-30T14:48:57.531Z,50.10
2023-04-30T14:52:00.024Z,51.18
2023-04-30T14:55:03.525Z,50.36
2023-04-30T14:58:06.176Z,50.69
2023-04-30T15:01:09.503Z,50.70
2023-04-30T15:04:12.369Z,51.70
2023-04-30T15:07:14.969Z,52.54
2023-04-30T15:10:18.613Z,51.68
2023-04-30T15:13:21.673Z,51.79
2023-04-30T15:16:24.623Z,50.50
2023-04-30T15:19:27.570Z,50.71
2023-04-30T15:22:30.484Z,51.77
2023-04-30T15:25:33.791Z,51.48
2023-04-30T15:28:36.502Z,51.40
2023-04-30T15:31:39.461Z,51.50
2023-04-30T15:34:42.215Z,52.38
2023-04-30T15:37:45.007Z,51.73
2023-04-30T15:40:48.433Z,52.89
2023-04-30T15:43:51.249Z,52.84
2023-04-30T15:46:53.868Z,53.12
2023-04-30T15:49:57.080Z,52.76
2023-04-30T15:52:59.770Z,53.12
2023-04-30T15:56:04.762Z,53.25
2023-04-30T15:59:07.807Z,53.43
2023-04-30T16:02:11.030Z,53.40
2023-04-30T16:05:13.715Z,53.50
2023-04-30T16:08:16.645Z,54.09
2023-04-30T16:11:22.733Z,54.06
2023-04-30T16:14:25.505Z,54.78
2023-04-30T16:17:28.194Z,54.51
2023-04-30T16:20:32.449Z,54.39
2023-04-30T16:23:35.653Z,54.28
2023-04-30T16:26:38.950Z,53.25
2023-04-30T16:29:41.993Z,54.49
2023-04-30T16:32:44.872Z,54.58
2023-04-30T16:35:48.245Z,54.65
2023-04-30T16:38:50.926Z,54.11
2023-04-30T16:41:53.699Z,54.42
2023-04-30T16:44:56.675Z,55.09
2023-04-30T16:47:59.671Z,55.84
2023-04-30T16:51:02.834Z,55.38
2023-04-30T16:54:05.594Z,56.08
2023-04-30T16:57:08.547Z,56.58
2023-04-30T17:00:14.258Z,56.89
2023-04-30T17:03:17.515Z,56.93
2023-04-30T17:06:20.359Z,56.97
2023-04-30T17:09:23.545Z,57.32
2023-04-30T17:12:27.410Z,58.30
2023-04-30T17:15:30.201Z,58.36
2023-04-30T17:18:33.188Z,57.78
2023-04-30T17:21:36.414Z,57.85
2023-04-30T17:24:39.238Z,58.01
2023-04-30T17:27:42.147Z,57.77
2023-04-30T17:30:45.257Z,58.60
2023-04-30T17:33:49.196Z,58.68
2023-04-30T17:36:51.972Z,59.15
2023-04-30T17:39:55.272Z,59.20
2023-04-30T17:42:58.466Z,59.72
2023-04-30T17:46:02.267Z,60.31
2023-04-30T17:49:06.870Z,60.44
2023-04-30T17:52:10.795Z,60.92
2023-04-30T17:55:13.783Z,61.28
2023-04-30T17:58:16.986Z,61.50
2023-04-30T18:01:20.108Z,61.48
2023-04-30T18:04:23.568Z,61.06
2023-04-30T18:07:26.880Z,60.79
2023-04-30T18:10:30.879Z,61.23
2023-04-30T18:13:34.136Z,61.31
2023-04-30T18:16:37.360Z,61.95
2023-04-30T18:19:44.472Z,61.25
2023-04-30T18:22:47.545Z,61.64
2023-04-30T18:25:50.040Z,61.30
2023-04-30T18:28:53.529Z,61.27
2023-04-30T18:31:57.728Z,61.14
2023-04-30T18:35:02.257Z,61.04
2023-04-30T18:38:08.074Z,61.65
2023-04-30T18:41:11.120Z,61.57
2023-04-30T18:44:14.180Z,61.60
2023-04-30T18:47:17.038Z,61.98
2023-04-30T18:50:21.552Z,62.16
2023-04-30T18:53:25.470Z,62.18
2023-04-30T18:56:27.966Z,62.47
2023-04-30T18:59:31.375Z,63.00
2023-04-30T19:02:34.189Z,63.36
2023-04-30T19:05:38.123Z,62.73
2023-04-30T19:08:40.961Z,62.65
2023-04-30T19:11:43.947Z,62.18
2023-04-30T19:14:47.226Z,62.37
2023-04-30T19:17:50.135Z,62.17
2023-04-30T19:21:01.998Z,61.71
2023-04-30T19:24:05.661Z,62.16
2023-04-30T19:27:08.751Z,62.41
2023-04-30T19:30:12.767Z,62.83
2023-04-30T19:33:15.623Z,62.47
2023-04-30T19:36:19.217Z,62.35
2023-04-30T19:39:22.236Z,62.62
2023-04-30T19:42:25.598Z,62.34
2023-04-30T19:45:28.684Z,62.85
2023-04-30T19:48:31.862Z,61.95
2023-04-30T19:51:35.205Z,62.18
2023-04-30T19:54:38.471Z,62.67
2023-04-30T19:57:41.138Z,62.74
2023-04-30T20:00:45.552Z,63.60
2023-04-30T20:03:49.130Z,63.65
2023-04-30T20:06:57.061Z,64.33
2023-04-30T20:09:59.981Z,64.64
2023-04-30T20:13:04.399Z,64.63
2023-04-30T20:16:11.286Z,64.65
2023-04-30T20:19:14.468Z,64.44
2023-04-30T20:22:17.632Z,64.94
2023-04-30T20:25:22.492Z,64.33
2023-04-30T20:28:25.123Z,64.23
2023-04-30T20:31:31.404Z,64.27
2023-04-30T20:34:36.785Z,63.80
2023-04-30T20:37:40.201Z,64.35
2023-04-30T20:40:46.156Z,64.88
2023-04-30T20:43:48.808Z,64.51
2023-04-30T20:46:51.609Z,64.36
2023-04-30T20:49:54.713Z,64.05
2023-04-30T20:52:57.453Z,64.53
2023-04-30T20:56:01.621Z,64.62
2023-04-30T20:59:04.848Z,64.09
2023-04-30T21:02:08.500Z,63.76
2023-04-30T21:05:11.203Z,64.42
2023-04-30T21:08:14.108Z,64.42
2023-04-30T21:11:17.148Z,64.86
2023-04-30T21:14:19.928Z,64.86
2023-04-30T21:17:22.995Z,65.45
2023-04-30T21:20:26.120Z,65.40
2023-04-30T21:23:29.998Z,65.77
2023-04-30T21:26:33.036Z,66.18
2023-04-30T21:29:35.536Z,66.15
2023-04-30T21:32:39.792Z,66.02
2023-04-30T21:35:42.294Z,65.83
2023-04-30T21:38:45.176Z,65.82
2023-04-30T21:41:49.158Z,65.87
2023-04-30T21:44:51.830Z,66.71
2023-04-30T21:47:54.633Z,67.04
2023-04-30T21:50:57.421Z,66.23
2023-04-30T21:54:00.012Z,65.67
2023-04-30T21:57:03.030Z,64.61
2023-04-30T22:00:06.550Z,64.64
2023-04-30T22:03:10.574Z,64.21
2023-04-30T22:06:13.141Z,63.25
2023-04-30T22:09:16.314Z,64.06
2023-04-30T22:12:21.372Z,63.49
2023-04-30T22:15:27.417Z,63.59
2023-04-30T22:18:34.547Z,62.97
2023-04-30T22:21:37.358Z,62.12
2023-04-30T22:24:40.053Z,61.47
2023-04-30T22:27:43.027Z,60.83
2023-04-30T22:30:45.641Z,60.19
2023-04-30T22:33:48.715Z,59.41
2023-04-30T22:36:51.239Z,58.53
2023-04-30T22:39:54.683Z,58.42
2023-04-30T22:42:58.264Z,58.80
2023-04-30T22:46:05.118Z,58.65
2023-04-30T22:49:12.443Z,59.45
2023-04-30T22:52:20.242Z,58.94
2023-04-30T22:55:23.325Z,58.50
2023-04-30T22:58:26.724Z,58.51
2023-04-30T23:01:29.268Z,58.35
2023-04-30T23:04:36.993Z,58.78
2023-04-30T23:07:39.775Z,58.74
2023-04-30T23:10:45.783Z,58.98
2023-04-30T23:13:48.952Z,59.17
2023-04-30T23:16:51.776Z,59.37
2023-04-30T23:19:55.037Z,59.00
2023-04-30T23:22:57.945Z,59.50
2023-04-30T23:26:01.287Z,58.78
2023-04-30T23:29:04.332Z,58.27
2023-04-30T23:32:07.006Z,57.78
2023-04-30T23:35:10.031Z,58.27
2023-04-30T23:38:13.019Z,57.50
2023-04-30T23:41:16.086Z,58.80
2023-04-30T23:44:18.836Z,60.13
2023-04-30T23:47:21.516Z,61.79
2023-04-30T23:50:24.213Z,62.89
2023-04-30T23:53:27.452Z,63.82
2023-04-30T23:56:30.859Z,64.51
2023-04-30T23:59:34.076Z,64.77
